createdAt,value
2019-05-01T00:01:02.529Z,0.70
2019-05-01T00:03:43.394Z,0.93
2019-05-01T00:06:12.253Z,1.00
2019-05-01T00:08:39.901Z,0.90
2019-05-01T00:11:07.126Z,0.68
2019-05-01T00:13:34.341Z,0.70
2019-05-01T00:16:01.623Z,1.12
2019-05-01T00:18:28.968Z,1.17
2019-05-01T00:20:56.191Z,0.80
2019-05-01T00:23:24.419Z,0.80
2019-05-01T00:25:51.645Z,0.80
2019-05-01T00:28:19.377Z,0.60
2019-05-01T00:30:46.600Z,0.90
2019-05-01T00:33:14.161Z,1.52
2019-05-01T00:35:41.383Z,1.60
2019-05-01T00:38:08.615Z,2.60
2019-05-01T00:40:36.220Z,2.62
2019-05-01T00:43:03.454Z,1.95
2019-05-01T00:45:30.720Z,2.30
2019-05-01T00:47:58.277Z,2.60
2019-05-01T00:50:25.472Z,1.32
2019-05-01T00:52:52.744Z,1.77
2019-05-01T00:55:40.052Z,2.20
2019-05-01T00:58:25.541Z,2.17
2019-05-01T01:01:11.475Z,1.12
2019-05-01T01:03:39.924Z,1.10
2019-05-01T01:06:07.564Z,1.30
2019-05-01T01:08:34.853Z,0.90
2019-05-01T01:11:02.053Z,2.22
2019-05-01T01:13:29.348Z,1.27
2019-05-01T01:15:56.549Z,1.30
2019-05-01T01:18:23.777Z,0.90
2019-05-01T01:20:51.053Z,2.20
2019-05-01T01:23:18.290Z,2.50
2019-05-01T01:25:45.494Z,1.87
2019-05-01T01:28:12.809Z,1.55
2019-05-01T01:30:40.007Z,1.15
2019-05-01T01:33:07.201Z,1.30
2019-05-01T01:35:34.442Z,1.75
2019-05-01T01:38:01.785Z,1.47
2019-05-01T01:40:29.004Z,1.10
2019-05-01T01:42:57.940Z,0.88
2019-05-01T01:45:26.781Z,1.17
2019-05-01T01:48:10.306Z,0.90
2019-05-01T01:50:38.235Z,0.90
2019-05-01T01:53:05.527Z,1.10
2019-05-01T01:55:32.728Z,2.10
2019-05-01T01:57:59.953Z,3.17
2019-05-01T02:00:28.788Z,1.87
2019-05-01T02:02:57.659Z,1.52
2019-05-01T02:05:26.496Z,2.05
2019-05-01T02:07:53.725Z,2.05
2019-05-01T02:10:21.020Z,1.90
2019-05-01T02:12:48.281Z,1.20
2019-05-01T02:15:15.504Z,1.15
2019-05-01T02:17:42.772Z,1.77
2019-05-01T02:20:10.177Z,1.42
2019-05-01T02:22:37.384Z,2.58
2019-05-01T02:25:05.829Z,1.42
2019-05-01T02:27:37.465Z,2.00
2019-05-01T02:30:09.219Z,1.80
2019-05-01T02:32:36.489Z,5.92
2019-05-01T02:35:04.556Z,3.47
2019-05-01T02:37:31.895Z,2.50
2019-05-01T02:39:59.174Z,2.02
2019-05-01T02:42:27.498Z,2.83
2019-05-01T02:44:54.778Z,6.87
2019-05-01T02:47:24.135Z,5.53
2019-05-01T02:49:52.312Z,4.10
2019-05-01T02:52:20.257Z,3.15
2019-05-01T02:54:48.239Z,2.20
2019-05-01T02:57:17.552Z,1.52
2019-05-01T02:59:45.676Z,1.50
2019-05-01T03:02:12.948Z,1.35
2019-05-01T03:04:40.776Z,2.70
2019-05-01T03:07:08.049Z,1.62
2019-05-01T03:09:35.241Z,1.45
2019-05-01T03:12:02.849Z,1.25
2019-05-01T03:14:30.593Z,1.10
2019-05-01T03:16:58.702Z,1.65
2019-05-01T03:19:30.687Z,1.30
2019-05-01T03:22:02.629Z,2.12
2019-05-01T03:24:30.173Z,1.32
2019-05-01T03:26:57.516Z,2.40
2019-05-01T03:29:24.798Z,5.17
2019-05-01T03:32:14.279Z,6.80
2019-05-01T03:34:21.133Z,5.62
2019-05-01T03:36:48.414Z,5.10
2019-05-01T03:39:15.988Z,4.20
2019-05-01T03:41:43.564Z,3.80
2019-05-01T03:44:10.832Z,2.37
2019-05-01T03:46:38.029Z,2.45
2019-05-01T03:49:05.760Z,1.82
2019-05-01T03:51:33.025Z,2.22
2019-05-01T03:54:00.468Z,2.55
2019-05-01T03:56:28.160Z,3.95
2019-05-01T03:58:55.372Z,8.80
2019-05-01T04:01:26.768Z,9.03
2019-05-01T04:04:07.878Z,4.25
2019-05-01T04:06:35.929Z,4.35
2019-05-01T04:09:04.645Z,3.90
2019-05-01T04:11:31.877Z,3.50
2019-05-01T04:13:59.128Z,3.80
2019-05-01T04:16:26.477Z,4.50
2019-05-01T04:18:53.872Z,4.15
2019-05-01T04:21:22.709Z,3.62
2019-05-01T04:23:50.002Z,3.33
2019-05-01T04:26:17.300Z,4.28
2019-05-01T04:28:54.997Z,3.42
2019-05-01T04:31:24.209Z,2.50
2019-05-01T04:33:53.117Z,2.62
2019-05-01T04:36:31.236Z,1.67
2019-05-01T04:38:58.518Z,1.55
2019-05-01T04:41:25.821Z,1.40
2019-05-01T04:43:53.217Z,1.20
2019-05-01T04:46:20.483Z,1.00
2019-05-01T04:48:47.701Z,2.27
2019-05-01T04:51:15.056Z,1.20
2019-05-01T04:53:42.253Z,1.55
2019-05-01T04:56:09.532Z,2.95
2019-05-01T04:58:37.169Z,1.82
2019-05-01T05:01:04.367Z,1.82
2019-05-01T05:03:32.071Z,1.35
2019-05-01T05:06:00.006Z,3.98
2019-05-01T05:08:27.205Z,3.83
2019-05-01T05:10:56.041Z,3.10
2019-05-01T05:13:31.176Z,3.20
2019-05-01T05:16:18.560Z,3.00
2019-05-01T05:18:46.098Z,2.80
2019-05-01T05:21:13.377Z,2.08
2019-05-01T05:23:40.914Z,2.05
2019-05-01T05:26:08.420Z,2.60
2019-05-01T05:28:35.886Z,2.17
2019-05-01T05:31:03.415Z,3.50
2019-05-01T05:33:30.788Z,3.90
2019-05-01T05:35:57.988Z,2.50
2019-05-01T05:38:43.170Z,2.02
2019-05-01T05:41:10.370Z,3.70
2019-05-01T05:43:37.575Z,4.45
2019-05-01T05:46:04.892Z,2.55
2019-05-01T05:48:32.365Z,4.00
2019-05-01T05:51:17.773Z,2.72
2019-05-01T05:53:53.116Z,1.77
2019-05-01T05:56:28.299Z,2.02
2019-05-01T05:58:57.145Z,1.92
2019-05-01T06:01:26.057Z,2.50
2019-05-01T06:03:54.961Z,2.52
2019-05-01T06:06:24.274Z,2.65
2019-05-01T06:08:52.512Z,1.40
2019-05-01T06:11:21.419Z,1.20
2019-05-01T06:14:06.798Z,3.92
2019-05-01T06:16:42.024Z,4.87
2019-05-01T06:19:26.055Z,6.17
2019-05-01T06:22:11.696Z,3.98
2019-05-01T06:24:42.410Z,5.60
2019-05-01T06:27:13.880Z,3.90
2019-05-01T06:29:38.725Z,5.00
2019-05-01T06:32:06.380Z,3.83
2019-05-01T06:34:33.656Z,3.40
2019-05-01T06:37:00.893Z,4.05
2019-05-01T06:39:28.121Z,2.80
2019-05-01T06:41:55.321Z,4.10
2019-05-01T06:44:26.912Z,3.20
2019-05-01T06:46:58.370Z,3.40
2019-05-01T06:49:29.413Z,2.85
2019-05-01T06:51:57.343Z,3.80
2019-05-01T06:54:24.573Z,3.05
2019-05-01T06:56:51.847Z,2.80
2019-05-01T06:59:19.512Z,2.17
2019-05-01T07:01:47.179Z,3.35
2019-05-01T07:04:14.410Z,4.67
2019-05-01T07:06:41.613Z,5.20
2019-05-01T07:09:11.819Z,3.60
2019-05-01T07:11:38.186Z,4.08
2019-05-01T07:14:05.884Z,3.50
2019-05-01T07:16:37.888Z,3.92
2019-05-01T07:19:06.022Z,3.12
2019-05-01T07:21:32.808Z,3.40
2019-05-01T07:24:00.233Z,3.30
2019-05-01T07:26:27.455Z,2.62
2019-05-01T07:28:56.293Z,3.20
2019-05-01T07:31:25.977Z,2.55
2019-05-01T07:33:52.600Z,2.33
2019-05-01T07:36:19.855Z,3.00
2019-05-01T07:38:47.133Z,3.33
2019-05-01T07:41:14.764Z,2.77
2019-05-01T07:43:59.631Z,2.12
2019-05-01T07:46:35.864Z,2.17
2019-05-01T07:49:03.145Z,2.27
2019-05-01T07:51:30.480Z,2.20
2019-05-01T07:53:59.162Z,2.00
2019-05-01T07:56:28.341Z,2.33
2019-05-01T07:58:57.062Z,2.22
2019-05-01T08:01:26.357Z,2.17
2019-05-01T08:03:53.641Z,3.20
2019-05-01T08:06:21.849Z,2.60
2019-05-01T08:08:49.947Z,2.67
2019-05-01T08:11:17.337Z,3.60
2019-05-01T08:13:44.599Z,4.33
2019-05-01T08:16:11.829Z,3.70
2019-05-01T08:18:52.687Z,3.08
2019-05-01T08:21:30.437Z,3.00
2019-05-01T08:23:57.632Z,5.22
2019-05-01T08:26:24.861Z,5.50
2019-05-01T08:29:06.843Z,4.25
2019-05-01T08:31:36.688Z,6.45
2019-05-01T08:34:11.292Z,5.70
2019-05-01T08:36:38.496Z,5.25
2019-05-01T08:39:09.174Z,5.75
2019-05-01T08:41:37.638Z,15.93
2019-05-01T08:44:06.694Z,15.35
2019-05-01T08:46:50.968Z,16.50
2019-05-01T08:49:21.477Z,18.50
2019-05-01T08:51:48.690Z,14.83
2019-05-01T08:54:15.924Z,19.07
2019-05-01T08:56:43.744Z,12.10
2019-05-01T08:59:11.302Z,10.32
2019-05-01T09:01:38.536Z,7.87
2019-05-01T09:04:12.798Z,6.25
2019-05-01T09:06:39.221Z,10.10
2019-05-01T09:09:08.365Z,7.75
2019-05-01T09:11:36.322Z,6.92
2019-05-01T09:14:04.056Z,6.97
2019-05-01T09:16:31.638Z,5.65
2019-05-01T09:18:59.114Z,5.85
2019-05-01T09:21:26.376Z,5.00
2019-05-01T09:23:53.833Z,5.10
2019-05-01T09:26:28.748Z,5.75
2019-05-01T09:29:10.918Z,7.22
2019-05-01T09:31:36.156Z,6.92
2019-05-01T09:34:03.757Z,4.87
2019-05-01T09:36:30.960Z,4.42
2019-05-01T09:38:58.261Z,3.30
2019-05-01T09:41:37.673Z,2.52
2019-05-01T09:43:54.485Z,3.35
2019-05-01T09:46:21.846Z,2.80
2019-05-01T09:48:49.137Z,2.33
2019-05-01T09:51:34.442Z,2.62
2019-05-01T09:54:09.782Z,6.42
2019-05-01T09:56:38.577Z,11.78
2019-05-01T09:59:05.898Z,12.43
2019-05-01T10:01:33.209Z,10.00
2019-05-01T10:04:01.553Z,8.50
2019-05-01T10:06:28.772Z,6.45
2019-05-01T10:08:55.974Z,5.00
2019-05-01T10:11:23.206Z,6.37
2019-05-01T10:13:53.659Z,5.83
2019-05-01T10:16:19.352Z,3.85
2019-05-01T10:18:46.554Z,2.90
2019-05-01T10:21:13.857Z,4.17
2019-05-01T10:23:41.400Z,5.78
2019-05-01T10:26:10.277Z,4.40
2019-05-01T10:28:39.121Z,4.78
2019-05-01T10:31:24.562Z,7.08
2019-05-01T10:34:07.666Z,4.70
2019-05-01T10:36:39.028Z,9.35
2019-05-01T10:39:07.208Z,7.00
2019-05-01T10:41:34.513Z,4.75
2019-05-01T10:44:02.047Z,4.97
2019-05-01T10:46:29.345Z,3.60
2019-05-01T10:48:57.508Z,4.37
2019-05-01T10:51:24.865Z,4.20
2019-05-01T10:53:52.489Z,6.45
2019-05-01T10:56:19.777Z,4.95
2019-05-01T10:58:46.997Z,6.45
2019-05-01T11:01:34.004Z,4.35
2019-05-01T11:04:01.660Z,3.75
2019-05-01T11:06:28.890Z,3.80
2019-05-01T11:08:56.165Z,4.90
2019-05-01T11:11:23.396Z,4.75
2019-05-01T11:13:50.681Z,4.95
2019-05-01T11:16:17.992Z,3.80
2019-05-01T11:18:45.188Z,3.90
2019-05-01T11:21:12.725Z,4.28
2019-05-01T11:23:39.943Z,4.80
2019-05-01T11:26:07.155Z,3.98
2019-05-01T11:28:34.563Z,3.10
2019-05-01T11:31:01.916Z,6.75
2019-05-01T11:33:40.249Z,5.95
2019-05-01T11:36:12.016Z,5.50
2019-05-01T11:38:43.923Z,4.62
2019-05-01T11:41:18.552Z,7.20
2019-05-01T11:43:45.773Z,14.13
2019-05-01T11:46:13.558Z,12.63
2019-05-01T11:48:40.793Z,9.15
2019-05-01T11:51:08.067Z,5.60
2019-05-01T11:53:35.465Z,4.58
2019-05-01T11:56:02.744Z,4.42
2019-05-01T11:58:30.017Z,3.70
2019-05-01T12:00:58.937Z,2.92
2019-05-01T12:03:26.512Z,2.70
2019-05-01T12:05:53.860Z,2.52
2019-05-01T12:08:21.129Z,3.72
2019-05-01T12:10:48.428Z,3.70
2019-05-01T12:13:15.750Z,2.75
2019-05-01T12:15:44.652Z,8.73
2019-05-01T12:18:12.168Z,5.78
2019-05-01T12:20:39.929Z,4.40
2019-05-01T12:23:07.493Z,4.08
2019-05-01T12:25:34.797Z,3.98
2019-05-01T12:28:02.068Z,3.80
2019-05-01T12:30:29.374Z,2.62
2019-05-01T12:32:56.648Z,4.08
2019-05-01T12:35:23.965Z,6.53
2019-05-01T12:37:55.281Z,4.55
2019-05-01T12:40:21.732Z,2.97
2019-05-01T12:42:49.455Z,2.37
2019-05-01T12:45:16.800Z,2.62
2019-05-01T12:47:45.716Z,7.30
2019-05-01T12:50:15.159Z,4.60
2019-05-01T12:52:46.873Z,4.25
2019-05-01T12:55:25.305Z,4.03
2019-05-01T12:57:52.504Z,4.28
2019-05-01T13:00:21.333Z,4.47
2019-05-01T13:02:48.641Z,3.70
2019-05-01T13:05:15.846Z,4.03
2019-05-01T13:07:43.045Z,2.90
2019-05-01T13:10:10.282Z,2.35
2019-05-01T13:12:37.481Z,2.95
2019-05-01T13:15:06.516Z,3.60
2019-05-01T13:17:34.047Z,3.35
2019-05-01T13:20:01.345Z,2.70
2019-05-01T13:22:28.633Z,2.70
2019-05-01T13:24:55.908Z,2.50
2019-05-01T13:27:27.692Z,1.95
2019-05-01T13:29:56.990Z,1.40
2019-05-01T13:32:29.132Z,3.65
2019-05-01T13:34:56.425Z,2.22
2019-05-01T13:37:23.704Z,2.47
2019-05-01T13:39:51.005Z,2.47
2019-05-01T13:42:18.212Z,2.08
2019-05-01T13:44:45.512Z,1.85
2019-05-01T13:47:13.048Z,2.72
2019-05-01T13:49:40.345Z,2.27
2019-05-01T13:52:07.544Z,2.75
2019-05-01T13:54:34.768Z,1.67
2019-05-01T13:57:01.964Z,1.60
2019-05-01T13:59:29.196Z,1.70
2019-05-01T14:01:56.401Z,2.25
2019-05-01T14:04:23.711Z,2.30
2019-05-01T14:06:50.919Z,1.77
2019-05-01T14:09:19.860Z,2.17
2019-05-01T14:11:47.137Z,4.20
2019-05-01T14:14:14.366Z,3.35
2019-05-01T14:16:41.570Z,2.30
2019-05-01T14:19:08.872Z,2.17
2019-05-01T14:21:40.685Z,1.90
2019-05-01T14:24:12.768Z,2.22
2019-05-01T14:26:40.037Z,2.40
2019-05-01T14:29:07.245Z,2.15
2019-05-01T14:31:34.555Z,2.02
2019-05-01T14:34:01.829Z,1.40
2019-05-01T14:36:29.137Z,1.80
2019-05-01T14:38:56.428Z,1.37
2019-05-01T14:41:23.661Z,1.30
2019-05-01T14:43:50.932Z,2.45
2019-05-01T14:46:18.210Z,1.60
2019-05-01T14:48:45.742Z,1.30
2019-05-01T14:51:13.033Z,3.80
2019-05-01T14:53:40.306Z,3.37
2019-05-01T14:56:07.530Z,2.30
2019-05-01T14:58:34.907Z,2.27
2019-05-01T15:01:02.576Z,1.90
2019-05-01T15:03:29.780Z,1.50
2019-05-01T15:05:57.085Z,1.90
2019-05-01T15:08:24.357Z,1.62
2019-05-01T15:10:51.872Z,1.07
2019-05-01T15:13:38.985Z,1.17
2019-05-01T15:16:07.941Z,1.10
2019-05-01T15:18:36.862Z,1.20
2019-05-01T15:21:04.120Z,1.30
2019-05-01T15:23:31.777Z,1.50
2019-05-01T15:25:59.338Z,1.00
2019-05-01T15:28:26.613Z,0.90
2019-05-01T15:30:53.941Z,1.10
2019-05-01T15:33:21.212Z,2.50
2019-05-01T15:35:48.768Z,1.60
2019-05-01T15:38:16.009Z,1.75
2019-05-01T15:41:01.600Z,1.65
2019-05-01T15:43:33.436Z,2.00
2019-05-01T15:46:00.645Z,3.33
2019-05-01T15:48:28.245Z,1.57
2019-05-01T15:50:55.455Z,1.45
2019-05-01T15:53:23.052Z,1.20
2019-05-01T15:55:50.613Z,1.55
2019-05-01T15:58:17.845Z,1.80
2019-05-01T16:00:45.425Z,2.10
2019-05-01T16:03:12.661Z,1.70
2019-05-01T16:05:39.870Z,1.20
2019-05-01T16:08:09.881Z,1.20
2019-05-01T16:10:40.726Z,1.47
2019-05-01T16:13:07.949Z,1.10
2019-05-01T16:15:35.646Z,2.12
2019-05-01T16:18:03.420Z,3.98
2019-05-01T16:20:30.692Z,2.92
2019-05-01T16:22:58.403Z,3.77
2019-05-01T16:25:25.680Z,4.87
2019-05-01T16:27:52.949Z,4.35
2019-05-01T16:30:22.026Z,4.87
2019-05-01T16:32:49.292Z,4.75
2019-05-01T16:35:16.496Z,5.70
2019-05-01T16:37:43.828Z,4.95
2019-05-01T16:40:15.981Z,5.72
2019-05-01T16:42:43.184Z,5.90
2019-05-01T16:45:10.885Z,6.67
2019-05-01T16:47:39.240Z,7.85
2019-05-01T16:50:06.900Z,6.20
2019-05-01T16:52:35.021Z,6.17
2019-05-01T16:55:02.648Z,7.50
2019-05-01T16:57:29.858Z,5.95
2019-05-01T16:59:57.461Z,4.80
2019-05-01T17:02:29.112Z,4.22
2019-05-01T17:04:57.981Z,6.40
2019-05-01T17:07:39.497Z,7.10
2019-05-01T17:10:11.837Z,5.08
2019-05-01T17:12:43.144Z,4.03
2019-05-01T17:15:10.793Z,5.30
2019-05-01T17:17:38.043Z,6.40
2019-05-01T17:20:06.249Z,5.90
2019-05-01T17:22:33.520Z,5.95
2019-05-01T17:25:00.748Z,6.03
2019-05-01T17:27:28.029Z,5.55
2019-05-01T17:29:55.616Z,5.47
2019-05-01T17:32:23.285Z,6.62
2019-05-01T17:34:50.584Z,7.25
2019-05-01T17:37:18.129Z,5.37
2019-05-01T17:39:45.359Z,6.47
2019-05-01T17:42:12.570Z,5.95
2019-05-01T17:44:39.876Z,11.40
2019-05-01T17:47:07.296Z,10.50
2019-05-01T17:49:34.530Z,9.38
2019-05-01T17:52:01.813Z,10.63
2019-05-01T17:54:29.095Z,10.68
2019-05-01T17:56:56.404Z,9.83
2019-05-01T17:59:23.635Z,10.78
2019-05-01T18:02:11.526Z,12.95
2019-05-01T18:04:43.849Z,9.75
2019-05-01T18:07:11.221Z,12.77
2019-05-01T18:09:38.513Z,11.18
2019-05-01T18:12:05.816Z,12.93
2019-05-01T18:14:33.024Z,10.35
2019-05-01T18:17:00.260Z,9.63
2019-05-01T18:19:27.484Z,10.78
2019-05-01T18:21:56.355Z,10.38
2019-05-01T18:24:28.456Z,12.53
2019-05-01T18:27:00.136Z,12.90
2019-05-01T18:29:28.985Z,11.70
2019-05-01T18:31:56.652Z,13.45
2019-05-01T18:34:23.928Z,10.70
2019-05-01T18:36:59.642Z,12.50
2019-05-01T18:39:29.295Z,13.40
2019-05-01T18:42:01.745Z,13.10
2019-05-01T18:44:28.954Z,11.38
2019-05-01T18:46:56.548Z,10.15
2019-05-01T18:49:23.748Z,10.90
2019-05-01T18:51:50.985Z,9.58
2019-05-01T18:54:18.188Z,7.50
2019-05-01T18:56:45.520Z,11.12
2019-05-01T18:59:12.827Z,9.70
2019-05-01T19:01:43.825Z,11.65
2019-05-01T19:04:09.005Z,9.78
2019-05-01T19:06:41.309Z,8.83
2019-05-01T19:09:14.868Z,9.78
2019-05-01T19:11:36.123Z,8.93
2019-05-01T19:14:03.743Z,8.85
2019-05-01T19:16:31.352Z,7.80
2019-05-01T19:18:58.912Z,9.50
2019-05-01T19:21:28.708Z,9.73
2019-05-01T19:24:00.668Z,10.13
2019-05-01T19:26:25.492Z,10.55
2019-05-01T19:28:52.825Z,8.78
2019-05-01T19:31:21.414Z,8.15
2019-05-01T19:33:49.197Z,8.25
2019-05-01T19:36:16.465Z,8.33
2019-05-01T19:38:43.704Z,11.20
2019-05-01T19:41:14.097Z,11.50
2019-05-01T19:43:40.567Z,8.68
2019-05-01T19:46:09.003Z,8.33
2019-05-01T19:48:36.242Z,8.85
2019-05-01T19:51:03.456Z,10.28
2019-05-01T19:53:31.231Z,9.28
2019-05-01T19:55:58.581Z,11.03
2019-05-01T19:58:26.211Z,8.85
2019-05-01T20:00:54.487Z,9.18
2019-05-01T20:03:21.864Z,8.10
2019-05-01T20:05:49.212Z,9.90
2019-05-01T20:08:16.906Z,11.12
2019-05-01T20:10:44.260Z,10.10
2019-05-01T20:13:12.290Z,9.28
2019-05-01T20:15:40.760Z,13.03
2019-05-01T20:18:08.084Z,11.22
2019-05-01T20:20:35.676Z,11.45
2019-05-01T20:23:03.237Z,11.00
2019-05-01T20:25:30.472Z,11.88
2019-05-01T20:27:57.677Z,11.93
2019-05-01T20:30:25.233Z,11.15
2019-05-01T20:32:52.815Z,10.45
2019-05-01T20:35:23.804Z,11.53
2019-05-01T20:37:49.049Z,12.50
2019-05-01T20:40:16.712Z,12.40
2019-05-01T20:42:43.992Z,12.25
2019-05-01T20:45:23.537Z,15.48
2019-05-01T20:47:45.892Z,12.82
2019-05-01T20:50:09.103Z,14.28
2019-05-01T20:52:36.309Z,17.48
2019-05-01T20:55:04.507Z,13.98
2019-05-01T20:57:33.361Z,17.55
2019-05-01T21:00:00.597Z,15.98
2019-05-01T21:02:27.804Z,19.55
2019-05-01T21:04:56.671Z,16.25
2019-05-01T21:07:25.520Z,15.45
2019-05-01T21:09:57.699Z,18.45
2019-05-01T21:12:23.328Z,17.52
2019-05-01T21:14:51.063Z,16.57
2019-05-01T21:17:18.522Z,19.15
2019-05-01T21:19:45.791Z,18.73
2019-05-01T21:22:14.255Z,15.72
2019-05-01T21:24:41.684Z,18.73
2019-05-01T21:27:08.912Z,18.98
2019-05-01T21:29:36.124Z,18.12
2019-05-01T21:32:03.639Z,17.17
2019-05-01T21:34:31.007Z,15.35
2019-05-01T21:36:58.538Z,16.97
2019-05-01T21:39:27.049Z,17.27
2019-05-01T21:41:54.684Z,13.03
2019-05-01T21:44:23.448Z,14.18
2019-05-01T21:46:50.717Z,15.75
2019-05-01T21:49:18.129Z,16.70
2019-05-01T21:51:46.284Z,12.20
2019-05-01T21:54:15.929Z,15.13
2019-05-01T21:56:42.805Z,14.20
2019-05-01T21:59:10.196Z,14.50
2019-05-01T22:01:37.400Z,17.02
2019-05-01T22:04:05.013Z,17.98
2019-05-01T22:06:32.216Z,12.68
2019-05-01T22:08:59.428Z,13.53
2019-05-01T22:11:26.673Z,13.62
2019-05-01T22:13:54.988Z,18.40
2019-05-01T22:16:27.595Z,17.80
2019-05-01T22:19:11.453Z,20.80
2019-05-01T22:21:58.631Z,20.25
2019-05-01T22:24:27.508Z,16.32
2019-05-01T22:26:56.712Z,22.02
2019-05-01T22:29:32.175Z,17.20
2019-05-01T22:32:16.805Z,21.35
2019-05-01T22:34:54.766Z,17.98
2019-05-01T22:37:22.004Z,16.15
2019-05-01T22:39:56.853Z,18.12
2019-05-01T22:42:24.052Z,13.50
2019-05-01T22:44:51.448Z,15.95
2019-05-01T22:47:18.661Z,11.80
2019-05-01T22:49:46.208Z,13.48
2019-05-01T22:52:13.616Z,9.03
2019-05-01T22:54:44.833Z,10.43
2019-05-01T22:57:10.928Z,10.43
2019-05-01T22:59:38.588Z,11.25
2019-05-01T23:02:07.432Z,10.32
2019-05-01T23:04:34.633Z,8.80
2019-05-01T23:07:01.894Z,9.70
2019-05-01T23:09:30.363Z,8.68
2019-05-01T23:11:57.741Z,7.80
2019-05-01T23:14:26.558Z,6.40
2019-05-01T23:16:58.556Z,8.35
2019-05-01T23:19:27.729Z,6.85
2019-05-01T23:21:53.352Z,6.90
2019-05-01T23:24:20.548Z,6.83
2019-05-01T23:26:51.481Z,7.80
2019-05-01T23:29:16.924Z,8.33
2019-05-01T23:31:44.124Z,7.70
2019-05-01T23:34:11.324Z,6.08
2019-05-01T23:36:38.557Z,5.45
2019-05-01T23:39:05.757Z,7.58
2019-05-01T23:41:45.317Z,7.95
2019-05-01T23:44:03.455Z,6.10
2019-05-01T23:46:30.904Z,8.50
2019-05-01T23:48:58.104Z,7.40
2019-05-01T23:51:28.575Z,7.05
2019-05-01T23:53:54.260Z,7.30
2019-05-01T23:56:21.463Z,8.98
2019-05-01T23:58:48.705Z,11.57
